地図

経路データ

SID SEASON NUMBER BASIN SUBBASIN NAME ISO_TIME NATURE LAT LON WMO_WIND WMO_PRES WMO_AGENCY TRACK_TYPE DIST2LAND LANDFALL IFLAG USA_AGENCY USA_ATCF_ID USA_LAT USA_LON USA_RECORD USA_STATUS USA_WIND USA_PRES USA_SSHS USA_R34_NE USA_R34_SE USA_R34_SW USA_R34_NW USA_R50_NE USA_R50_SE USA_R50_SW USA_R50_NW USA_R64_NE USA_R64_SE USA_R64_SW USA_R64_NW USA_POCI USA_ROCI USA_RMW USA_EYE TOKYO_LAT TOKYO_LON TOKYO_GRADE TOKYO_WIND TOKYO_PRES TOKYO_R50_DIR TOKYO_R50_LONG TOKYO_R50_SHORT TOKYO_R30_DIR TOKYO_R30_LONG TOKYO_R30_SHORT TOKYO_LAND CMA_LAT CMA_LON CMA_CAT CMA_WIND CMA_PRES HKO_LAT HKO_LON HKO_CAT HKO_WIND HKO_PRES NEWDELHI_LAT NEWDELHI_LON NEWDELHI_GRADE NEWDELHI_WIND NEWDELHI_PRES NEWDELHI_CI NEWDELHI_DP NEWDELHI_POCI REUNION_LAT REUNION_LON REUNION_TYPE REUNION_WIND REUNION_PRES REUNION_TNUM REUNION_CI REUNION_RMW REUNION_R34_NE REUNION_R34_SE REUNION_R34_SW REUNION_R34_NW REUNION_R50_NE REUNION_R50_SE REUNION_R50_SW REUNION_R50_NW REUNION_R64_NE REUNION_R64_SE REUNION_R64_SW REUNION_R64_NW BOM_LAT BOM_LON BOM_TYPE BOM_WIND BOM_PRES BOM_TNUM BOM_CI BOM_RMW BOM_R34_NE BOM_R34_SE BOM_R34_SW BOM_R34_NW BOM_R50_NE BOM_R50_SE BOM_R50_SW BOM_R50_NW BOM_R64_NE BOM_R64_SE BOM_R64_SW BOM_R64_NW BOM_ROCI BOM_POCI BOM_EYE BOM_POS_METHOD BOM_PRES_METHOD NADI_LAT NADI_LON NADI_CAT NADI_WIND NADI_PRES WELLINGTON_LAT WELLINGTON_LON WELLINGTON_WIND WELLINGTON_PRES DS824_LAT DS824_LON DS824_STAGE DS824_WIND DS824_PRES TD9636_LAT TD9636_LON TD9636_STAGE TD9636_WIND TD9636_PRES TD9635_LAT TD9635_LON TD9635_WIND TD9635_PRES TD9635_ROCI NEUMANN_LAT NEUMANN_LON NEUMANN_CLASS NEUMANN_WIND NEUMANN_PRES MLC_LAT MLC_LON MLC_CLASS MLC_WIND MLC_PRES USA_GUST BOM_GUST BOM_GUST_PER REUNION_GUST REUNION_GUST_PER USA_SEAHGT USA_SEARAD_NE USA_SEARAD_SE USA_SEARAD_SW USA_SEARAD_NW STORM_SPEED STORM_DIR
1944253N25265 1944 55 NA GM NOT_NAMED 1944-09-09 00:00:00 TS 25.0000 -95.0000 25 hurdat_atl main 230 225 O_____________ hurdat_atl AL061944 25.0000 -95.0000 TD 25 -1 8 11
1944253N25265 1944 55 NA GM NOT_NAMED 1944-09-09 03:00:00 TS 25.4050 -94.9076 main 230 224 P_____________ AL061944 25.4050 -94.9076 TD 27 -1 8 13
1944253N25265 1944 55 NA GM NOT_NAMED 1944-09-09 06:00:00 TS 25.8000 -94.8000 30 hurdat_atl main 230 230 O_____________ hurdat_atl AL061944 25.8000 -94.8000 TD 30 -1 8 16
1944253N25265 1944 55 NA GM NOT_NAMED 1944-09-09 09:00:00 TS 26.1725 -94.6650 main 240 240 P_____________ AL061944 26.1725 -94.6650 TD 32 -1 8 21
1944253N25265 1944 55 NA GM NOT_NAMED 1944-09-09 12:00:00 TS 26.5000 -94.5000 35 hurdat_atl main 265 258 O_____________ hurdat_atl AL061944 26.5000 -94.5000 TS 35 0 7 27
1944253N25265 1944 55 NA GM NOT_NAMED 1944-09-09 15:00:00 TS 26.7874 -94.3225 main 258 242 P_____________ AL061944 26.7874 -94.3225 TS 37 0 6 36
1944253N25265 1944 55 NA GM NOT_NAMED 1944-09-09 18:00:00 TS 27.0000 -94.1000 40 hurdat_atl main 247 242 O_____________ hurdat_atl AL061944 27.0000 -94.1000 TS 40 0 5 54
1944253N25265 1944 55 NA GM NOT_NAMED 1944-09-09 21:00:00 TS 27.0998 -93.8370 main 252 252 P_____________ AL061944 27.0998 -93.8370 TS 42 0 6 69
1944253N25265 1944 55 NA GM NOT_NAMED 1944-09-10 00:00:00 TS 27.2000 -93.5000 45 hurdat_atl main 261 247 O_____________ hurdat_atl AL061944 27.2000 -93.5000 TS 45 0 7 65
1944253N25265 1944 55 NA GM NOT_NAMED 1944-09-10 03:00:00 TS 27.4124 -93.0873 main 247 203 P_____________ AL061944 27.4124 -93.0873 TS 45 0 9 58
1944253N25265 1944 55 NA GM NOT_NAMED 1944-09-10 06:00:00 TS 27.7000 -92.6000 45 hurdat_atl main 203 167 O_____________ hurdat_atl AL061944 27.7000 -92.6000 TS 45 0 11 54
1944253N25265 1944 55 NA GM NOT_NAMED 1944-09-10 09:00:00 TS 28.0341 -92.1243 main 165 97 P_____________ AL061944 28.0341 -92.1243 TS 47 0 12 54
1944253N25265 1944 55 NA GM NOT_NAMED 1944-09-10 12:00:00 TS 28.4000 -91.5000 50 hurdat_atl main 97 44 O_____________ hurdat_atl AL061944 28.4000 -91.5000 TS 50 0 16 66
1944253N25265 1944 55 NA GM NOT_NAMED 1944-09-10 15:00:00 TS 28.6838 -90.5033 main 45 19 P_____________ AL061944 28.6838 -90.5033 TS 52 0 18 67
1944253N25265 1944 55 NA GM NOT_NAMED 1944-09-10 18:00:00 TS 29.1000 -89.6000 55 992 hurdat_atl main 19 0 O_____________ hurdat_atl AL061944 29.1000 -89.6000 TS 55 992 0 17 57
1944253N25265 1944 55 NA NA NOT_NAMED 1944-09-10 19:00:00 TS 29.3000 -89.4000 55 992 hurdat_atl main 0 0 O_____________ hurdat_atl AL061944 29.3000 -89.4000 L TS 55 992 0 18 47
1944253N25265 1944 55 NA GM NOT_NAMED 1944-09-10 21:00:00 TS 29.7146 -88.8500 main 49 11 P_____________ AL061944 29.7146 -88.8500 TS 52 0 21 44
1944253N25265 1944 55 NA GM NOT_NAMED 1944-09-10 23:00:00 TS 30.3000 -88.3000 50 hurdat_atl main 11 0 O_____________ hurdat_atl AL061944 30.3000 -88.3000 L TS 50 0 24 33
1944253N25265 1944 55 NA NA NOT_NAMED 1944-09-11 00:00:00 TS 30.7000 -88.1000 40 hurdat_atl main 0 0 O_____________ hurdat_atl AL061944 30.7000 -88.1000 TS 40 0 18 36
1944253N25265 1944 55 NA NA NOT_NAMED 1944-09-11 03:00:00 TS 31.2857 -87.4809 main 0 0 P_____________ AL061944 31.2857 -87.4809 TS 35 0 12 53
1944253N25265 1944 55 NA NA NOT_NAMED 1944-09-11 06:00:00 TS 31.4000 -87.0000 30 hurdat_atl main 0 0 O_____________ hurdat_atl AL061944 31.4000 -87.0000 TD 30 -1 7 59
1944253N25265 1944 55 NA NA NOT_NAMED 1944-09-11 09:00:00 TS 31.6338 -86.8107 main 0 0 P_____________ AL061944 31.6338 -86.8107 TD 27 -1 6 16
1944253N25265 1944 55 NA NA NOT_NAMED 1944-09-11 12:00:00 TS 32.0000 -86.8000 25 hurdat_atl main 0 O_____________ hurdat_atl AL061944 32.0000 -86.8000 TD 25 -1 7 3

IBTrACS Databaseについて

本データベースは、米国NOAAが公開する1842年以降の世界の熱帯低気圧のベストトラックデータアーカイブInternational Best Track Archive for Climate Stewardship (IBTrACS)を、ウェブで閲覧しやすい形式に変換したものです。

最終更新日:2021-12-06